sensor_id;sensor_type;location;lat;lon;timestamp;P1;durP1;ratioP1;P2;durP2;ratioP2
78205;SDS011;67480;48.920;12.880;2023-03-04T00:00:27;18.10;;;11.75;;
78205;SDS011;67480;48.920;12.880;2023-03-04T00:02:52;19.55;;;11.75;;
78205;SDS011;67480;48.920;12.880;2023-03-04T00:05:17;17.25;;;11.32;;
78205;SDS011;67480;48.920;12.880;2023-03-04T00:07:43;21.27;;;11.95;;
78205;SDS011;67480;48.920;12.880;2023-03-04T00:10:08;18.15;;;12.20;;
78205;SDS011;67480;48.920;12.880;2023-03-04T00:12:34;17.40;;;11.95;;
78205;SDS011;67480;48.920;12.880;2023-03-04T00:15:00;20.08;;;11.75;;
78205;SDS011;67480;48.920;12.880;2023-03-04T00:17:25;19.67;;;10.57;;
78205;SDS011;67480;48.920;12.880;2023-03-04T00:19:50;18.58;;;11.48;;
78205;SDS011;67480;48.920;12.880;2023-03-04T00:22:16;17.60;;;11.35;;
78205;SDS011;67480;48.920;12.880;2023-03-04T00:24:41;16.33;;;11.50;;
78205;SDS011;67480;48.920;12.880;2023-03-04T00:27:06;17.65;;;11.15;;
78205;SDS011;67480;48.920;12.880;2023-03-04T00:29:32;18.65;;;11.70;;
78205;SDS011;67480;48.920;12.880;2023-03-04T00:31:57;16.65;;;10.25;;
78205;SDS011;67480;48.920;12.880;2023-03-04T00:34:22;16.02;;;10.60;;
78205;SDS011;67480;48.920;12.880;2023-03-04T00:36:48;16.05;;;10.95;;
78205;SDS011;67480;48.920;12.880;2023-03-04T00:39:13;17.05;;;10.57;;
78205;SDS011;67480;48.920;12.880;2023-03-04T00:41:39;16.52;;;10.55;;
78205;SDS011;67480;48.920;12.880;2023-03-04T00:44:04;18.33;;;11.30;;
78205;SDS011;67480;48.920;12.880;2023-03-04T00:46:30;18.58;;;10.95;;
78205;SDS011;67480;48.920;12.880;2023-03-04T00:48:55;19.73;;;11.45;;
78205;SDS011;67480;48.920;12.880;2023-03-04T00:51:20;19.08;;;11.45;;
78205;SDS011;67480;48.920;12.880;2023-03-04T00:53:46;16.00;;;10.25;;
78205;SDS011;67480;48.920;12.880;2023-03-04T00:56:11;19.08;;;11.80;;
78205;SDS011;67480;48.920;12.880;2023-03-04T00:58:37;18.13;;;11.35;;
78205;SDS011;67480;48.920;12.880;2023-03-04T01:01:04;20.10;;;12.68;;
78205;SDS011;67480;48.920;12.880;2023-03-04T01:03:30;17.40;;;11.77;;
78205;SDS011;67480;48.920;12.880;2023-03-04T01:05:56;16.48;;;11.60;;
78205;SDS011;67480;48.920;12.880;2023-03-04T01:08:22;19.67;;;12.00;;
78205;SDS011;67480;48.920;12.880;2023-03-04T01:10:47;18.70;;;10.88;;
78205;SDS011;67480;48.920;12.880;2023-03-04T01:13:12;16.90;;;11.25;;
78205;SDS011;67480;48.920;12.880;2023-03-04T01:15:38;17.98;;;11.60;;
78205;SDS011;67480;48.920;12.880;2023-03-04T01:18:03;21.45;;;12.10;;
78205;SDS011;67480;48.920;12.880;2023-03-04T01:20:28;19.48;;;11.15;;
78205;SDS011;67480;48.920;12.880;2023-03-04T01:22:54;15.52;;;10.45;;
78205;SDS011;67480;48.920;12.880;2023-03-04T01:25:19;16.95;;;10.43;;
78205;SDS011;67480;48.920;12.880;2023-03-04T01:27:44;19.02;;;12.68;;
78205;SDS011;67480;48.920;12.880;2023-03-04T01:30:10;17.90;;;11.90;;
78205;SDS011;67480;48.920;12.880;2023-03-04T01:32:37;19.25;;;12.57;;
78205;SDS011;67480;48.920;12.880;2023-03-04T01:35:02;21.45;;;12.10;;
78205;SDS011;67480;48.920;12.880;2023-03-04T01:37:27;17.23;;;11.10;;
78205;SDS011;67480;48.920;12.880;2023-03-04T01:39:53;16.98;;;11.25;;
78205;SDS011;67480;48.920;12.880;2023-03-04T01:42:19;17.50;;;11.50;;
78205;SDS011;67480;48.920;12.880;2023-03-04T01:44:45;18.73;;;10.88;;
78205;SDS011;67480;48.920;12.880;2023-03-04T01:47:12;13.45;;;9.43;;
78205;SDS011;67480;48.920;12.880;2023-03-04T01:49:37;20.10;;;12.02;;
78205;SDS011;67480;48.920;12.880;2023-03-04T01:52:04;18.52;;;11.10;;
78205;SDS011;67480;48.920;12.880;2023-03-04T01:54:30;13.77;;;9.35;;
78205;SDS011;67480;48.920;12.880;2023-03-04T01:56:55;15.80;;;10.27;;
78205;SDS011;67480;48.920;12.880;2023-03-04T01:59:23;15.15;;;10.35;;
78205;SDS011;67480;48.920;12.880;2023-03-04T02:01:54;19.88;;;10.88;;
78205;SDS011;67480;48.920;12.880;2023-03-04T02:04:22;16.70;;;9.40;;
78205;SDS011;67480;48.920;12.880;2023-03-04T02:06:50;17.10;;;11.52;;
78205;SDS011;67480;48.920;12.880;2023-03-04T02:09:16;18.77;;;11.57;;
78205;SDS011;67480;48.920;12.880;2023-03-04T02:11:43;18.33;;;10.43;;
78205;SDS011;67480;48.920;12.880;2023-03-04T02:14:10;16.33;;;9.60;;
78205;SDS011;67480;48.920;12.880;2023-03-04T02:16:37;14.40;;;9.52;;
78205;SDS011;67480;48.920;12.880;2023-03-04T02:19:06;17.08;;;9.98;;
78205;SDS011;67480;48.920;12.880;2023-03-04T02:21:54;14.23;;;8.95;;
78205;SDS011;67480;48.920;12.880;2023-03-04T02:24:25;13.68;;;9.45;;
78205;SDS011;67480;48.920;12.880;2023-03-04T02:26:52;16.67;;;8.75;;
78205;SDS011;67480;48.920;12.880;2023-03-04T02:29:17;13.30;;;8.10;;
78205;SDS011;67480;48.920;12.880;2023-03-04T02:31:44;12.75;;;8.15;;
78205;SDS011;67480;48.920;12.880;2023-03-04T02:34:13;12.00;;;8.35;;
78205;SDS011;67480;48.920;12.880;2023-03-04T02:36:42;15.55;;;8.27;;
78205;SDS011;67480;48.920;12.880;2023-03-04T02:41:50;13.80;;;8.75;;
78205;SDS011;67480;48.920;12.880;2023-03-04T02:44:21;12.77;;;8.77;;
78205;SDS011;67480;48.920;12.880;2023-03-04T02:46:59;13.32;;;8.60;;
78205;SDS011;67480;48.920;12.880;2023-03-04T02:49:26;18.20;;;10.02;;
78205;SDS011;67480;48.920;12.880;2023-03-04T02:54:29;12.75;;;8.07;;
78205;SDS011;67480;48.920;12.880;2023-03-04T02:56:57;14.18;;;8.70;;
78205;SDS011;67480;48.920;12.880;2023-03-04T02:59:24;12.95;;;8.18;;
78205;SDS011;67480;48.920;12.880;2023-03-04T03:01:49;14.88;;;8.25;;
78205;SDS011;67480;48.920;12.880;2023-03-04T03:04:15;11.07;;;7.65;;
78205;SDS011;67480;48.920;12.880;2023-03-04T03:06:41;14.63;;;8.05;;
78205;SDS011;67480;48.920;12.880;2023-03-04T03:09:07;11.70;;;8.13;;
78205;SDS011;67480;48.920;12.880;2023-03-04T03:11:33;12.43;;;8.55;;
78205;SDS011;67480;48.920;12.880;2023-03-04T03:13:59;12.60;;;8.68;;
78205;SDS011;67480;48.920;12.880;2023-03-04T03:16:24;10.75;;;7.95;;
78205;SDS011;67480;48.920;12.880;2023-03-04T03:18:49;12.68;;;8.45;;
78205;SDS011;67480;48.920;12.880;2023-03-04T03:21:15;14.52;;;10.45;;
78205;SDS011;67480;48.920;12.880;2023-03-04T03:23:41;12.60;;;8.77;;
78205;SDS011;67480;48.920;12.880;2023-03-04T03:26:07;13.93;;;9.00;;
78205;SDS011;67480;48.920;12.880;2023-03-04T03:28:33;14.32;;;9.00;;
78205;SDS011;67480;48.920;12.880;2023-03-04T03:30:58;16.98;;;10.27;;
78205;SDS011;67480;48.920;12.880;2023-03-04T03:33:23;17.08;;;10.23;;
78205;SDS011;67480;48.920;12.880;2023-03-04T03:35:49;15.55;;;9.55;;
78205;SDS011;67480;48.920;12.880;2023-03-04T03:38:14;16.10;;;10.00;;
78205;SDS011;67480;48.920;12.880;2023-03-04T03:40:39;16.48;;;9.90;;
78205;SDS011;67480;48.920;12.880;2023-03-04T03:43:05;13.43;;;9.73;;
78205;SDS011;67480;48.920;12.880;2023-03-04T03:45:30;12.85;;;8.82;;
78205;SDS011;67480;48.920;12.880;2023-03-04T03:47:56;14.32;;;9.68;;
78205;SDS011;67480;48.920;12.880;2023-03-04T03:50:21;16.02;;;8.77;;
78205;SDS011;67480;48.920;12.880;2023-03-04T03:52:46;15.07;;;10.27;;
78205;SDS011;67480;48.920;12.880;2023-03-04T03:55:12;16.58;;;9.30;;
78205;SDS011;67480;48.920;12.880;2023-03-04T03:57:37;13.77;;;8.88;;
78205;SDS011;67480;48.920;12.880;2023-03-04T04:00:03;14.50;;;8.88;;
78205;SDS011;67480;48.920;12.880;2023-03-04T04:02:30;13.60;;;8.68;;
78205;SDS011;67480;48.920;12.880;2023-03-04T04:04:55;15.68;;;9.95;;
78205;SDS011;67480;48.920;12.880;2023-03-04T04:07:21;14.18;;;9.10;;
78205;SDS011;67480;48.920;12.880;2023-03-04T04:09:46;14.85;;;9.55;;
78205;SDS011;67480;48.920;12.880;2023-03-04T04:12:13;14.25;;;9.55;;
78205;SDS011;67480;48.920;12.880;2023-03-04T04:14:39;16.38;;;10.13;;
78205;SDS011;67480;48.920;12.880;2023-03-04T04:17:04;18.85;;;11.18;;
78205;SDS011;67480;48.920;12.880;2023-03-04T04:19:30;19.30;;;10.90;;
78205;SDS011;67480;48.920;12.880;2023-03-04T04:21:55;14.75;;;9.70;;
78205;SDS011;67480;48.920;12.880;2023-03-04T04:24:21;15.75;;;9.65;;
78205;SDS011;67480;48.920;12.880;2023-03-04T04:26:46;14.50;;;9.90;;
78205;SDS011;67480;48.920;12.880;2023-03-04T04:29:12;14.27;;;9.80;;
78205;SDS011;67480;48.920;12.880;2023-03-04T04:31:37;19.40;;;11.57;;
78205;SDS011;67480;48.920;12.880;2023-03-04T04:34:03;17.90;;;11.10;;
78205;SDS011;67480;48.920;12.880;2023-03-04T04:36:28;16.70;;;10.38;;
78205;SDS011;67480;48.920;12.880;2023-03-04T04:38:53;16.73;;;11.10;;
78205;SDS011;67480;48.920;12.880;2023-03-04T04:41:20;17.05;;;11.20;;
78205;SDS011;67480;48.920;12.880;2023-03-04T04:43:47;16.65;;;9.43;;
78205;SDS011;67480;48.920;12.880;2023-03-04T04:46:13;16.95;;;9.55;;
78205;SDS011;67480;48.920;12.880;2023-03-04T04:48:40;16.13;;;8.98;;
78205;SDS011;67480;48.920;12.880;2023-03-04T04:51:05;16.50;;;10.05;;
78205;SDS011;67480;48.920;12.880;2023-03-04T04:53:30;16.98;;;9.95;;
78205;SDS011;67480;48.920;12.880;2023-03-04T04:55:56;15.30;;;9.45;;
78205;SDS011;67480;48.920;12.880;2023-03-04T04:58:21;16.52;;;10.27;;
78205;SDS011;67480;48.920;12.880;2023-03-04T05:00:47;20.27;;;11.45;;
78205;SDS011;67480;48.920;12.880;2023-03-04T05:03:12;17.33;;;11.18;;
78205;SDS011;67480;48.920;12.880;2023-03-04T05:05:37;16.85;;;10.68;;
78205;SDS011;67480;48.920;12.880;2023-03-04T05:08:03;14.43;;;9.35;;
78205;SDS011;67480;48.920;12.880;2023-03-04T05:10:28;19.40;;;10.70;;
78205;SDS011;67480;48.920;12.880;2023-03-04T05:12:53;13.38;;;9.50;;
78205;SDS011;67480;48.920;12.880;2023-03-04T05:15:19;17.05;;;10.48;;
78205;SDS011;67480;48.920;12.880;2023-03-04T05:17:44;14.55;;;9.80;;
78205;SDS011;67480;48.920;12.880;2023-03-04T05:20:10;14.48;;;9.93;;
78205;SDS011;67480;48.920;12.880;2023-03-04T05:22:35;15.25;;;10.10;;
78205;SDS011;67480;48.920;12.880;2023-03-04T05:25:01;14.55;;;9.80;;
78205;SDS011;67480;48.920;12.880;2023-03-04T05:27:27;13.60;;;9.40;;
78205;SDS011;67480;48.920;12.880;2023-03-04T05:29:52;14.25;;;8.73;;
78205;SDS011;67480;48.920;12.880;2023-03-04T05:32:19;14.15;;;8.77;;
78205;SDS011;67480;48.920;12.880;2023-03-04T05:34:45;12.65;;;8.48;;
78205;SDS011;67480;48.920;12.880;2023-03-04T05:37:10;15.05;;;9.73;;
78205;SDS011;67480;48.920;12.880;2023-03-04T05:39:35;15.23;;;10.65;;
78205;SDS011;67480;48.920;12.880;2023-03-04T05:42:01;15.40;;;10.25;;
78205;SDS011;67480;48.920;12.880;2023-03-04T05:44:26;15.60;;;9.13;;
78205;SDS011;67480;48.920;12.880;2023-03-04T05:46:51;11.82;;;8.52;;
78205;SDS011;67480;48.920;12.880;2023-03-04T05:49:17;13.40;;;7.57;;
78205;SDS011;67480;48.920;12.880;2023-03-04T05:51:42;15.18;;;8.75;;
78205;SDS011;67480;48.920;12.880;2023-03-04T05:54:07;14.23;;;9.77;;
78205;SDS011;67480;48.920;12.880;2023-03-04T05:56:33;14.25;;;8.82;;
78205;SDS011;67480;48.920;12.880;2023-03-04T05:58:58;13.95;;;8.95;;
78205;SDS011;67480;48.920;12.880;2023-03-04T06:01:24;10.73;;;7.10;;
78205;SDS011;67480;48.920;12.880;2023-03-04T06:03:50;11.07;;;8.02;;
78205;SDS011;67480;48.920;12.880;2023-03-04T06:06:15;11.65;;;7.72;;
78205;SDS011;67480;48.920;12.880;2023-03-04T06:08:41;13.27;;;8.27;;
78205;SDS011;67480;48.920;12.880;2023-03-04T06:11:06;17.13;;;8.68;;
78205;SDS011;67480;48.920;12.880;2023-03-04T06:13:32;11.02;;;7.82;;
78205;SDS011;67480;48.920;12.880;2023-03-04T06:15:58;11.15;;;7.00;;
78205;SDS011;67480;48.920;12.880;2023-03-04T06:18:24;13.57;;;8.10;;
78205;SDS011;67480;48.920;12.880;2023-03-04T06:20:54;11.70;;;7.50;;
78205;SDS011;67480;48.920;12.880;2023-03-04T06:23:21;12.88;;;8.68;;
78205;SDS011;67480;48.920;12.880;2023-03-04T06:25:49;12.75;;;8.40;;
78205;SDS011;67480;48.920;12.880;2023-03-04T06:28:16;15.70;;;8.32;;
78205;SDS011;67480;48.920;12.880;2023-03-04T06:30:41;13.57;;;8.95;;
78205;SDS011;67480;48.920;12.880;2023-03-04T06:33:06;12.63;;;7.68;;
78205;SDS011;67480;48.920;12.880;2023-03-04T06:35:32;16.52;;;9.15;;
78205;SDS011;67480;48.920;12.880;2023-03-04T06:37:57;18.75;;;9.88;;
78205;SDS011;67480;48.920;12.880;2023-03-04T06:40:22;16.38;;;10.65;;
78205;SDS011;67480;48.920;12.880;2023-03-04T06:42:47;16.25;;;11.27;;
78205;SDS011;67480;48.920;12.880;2023-03-04T06:45:13;17.42;;;11.10;;
78205;SDS011;67480;48.920;12.880;2023-03-04T06:47:38;12.82;;;8.55;;
78205;SDS011;67480;48.920;12.880;2023-03-04T06:50:04;12.48;;;7.85;;
78205;SDS011;67480;48.920;12.880;2023-03-04T06:52:30;12.50;;;7.60;;
78205;SDS011;67480;48.920;12.880;2023-03-04T06:54:55;14.70;;;8.77;;
78205;SDS011;67480;48.920;12.880;2023-03-04T06:57:20;18.35;;;12.70;;
78205;SDS011;67480;48.920;12.880;2023-03-04T06:59:46;21.90;;;14.65;;
78205;SDS011;67480;48.920;12.880;2023-03-04T17:09:29;21.92;;;13.18;;
78205;SDS011;67480;48.920;12.880;2023-03-04T17:11:54;27.95;;;15.70;;
78205;SDS011;67480;48.920;12.880;2023-03-04T17:14:21;25.50;;;14.48;;
78205;SDS011;67480;48.920;12.880;2023-03-04T17:16:47;25.90;;;15.27;;
78205;SDS011;67480;48.920;12.880;2023-03-04T17:19:12;22.90;;;13.98;;
78205;SDS011;67480;48.920;12.880;2023-03-04T17:21:37;25.98;;;15.55;;
78205;SDS011;67480;48.920;12.880;2023-03-04T17:24:03;27.98;;;16.40;;
78205;SDS011;67480;48.920;12.880;2023-03-04T17:26:28;23.40;;;13.82;;
78205;SDS011;67480;48.920;12.880;2023-03-04T17:28:55;57.67;;;38.55;;
78205;SDS011;67480;48.920;12.880;2023-03-04T17:31:20;24.90;;;14.65;;
78205;SDS011;67480;48.920;12.880;2023-03-04T17:33:45;28.98;;;18.02;;
78205;SDS011;67480;48.920;12.880;2023-03-04T17:36:12;28.08;;;13.93;;
78205;SDS011;67480;48.920;12.880;2023-03-04T17:38:38;24.00;;;14.20;;
78205;SDS011;67480;48.920;12.880;2023-03-04T17:41:04;25.70;;;14.65;;
78205;SDS011;67480;48.920;12.880;2023-03-04T17:43:32;28.70;;;15.88;;
78205;SDS011;67480;48.920;12.880;2023-03-04T17:46:01;28.83;;;16.48;;
78205;SDS011;67480;48.920;12.880;2023-03-04T17:48:28;27.80;;;15.38;;
78205;SDS011;67480;48.920;12.880;2023-03-04T17:50:53;28.80;;;14.75;;
78205;SDS011;67480;48.920;12.880;2023-03-04T17:53:18;25.80;;;14.90;;
78205;SDS011;67480;48.920;12.880;2023-03-04T17:55:48;26.95;;;14.52;;
78205;SDS011;67480;48.920;12.880;2023-03-04T17:58:17;32.03;;;18.70;;
78205;SDS011;67480;48.920;12.880;2023-03-04T18:00:42;27.65;;;16.60;;
78205;SDS011;67480;48.920;12.880;2023-03-04T18:03:09;33.25;;;17.33;;
78205;SDS011;67480;48.920;12.880;2023-03-04T18:05:36;29.13;;;17.10;;
78205;SDS011;67480;48.920;12.880;2023-03-04T18:08:01;25.02;;;15.77;;
78205;SDS011;67480;48.920;12.880;2023-03-04T18:10:27;23.88;;;15.70;;
78205;SDS011;67480;48.920;12.880;2023-03-04T18:12:52;25.35;;;15.20;;
78205;SDS011;67480;48.920;12.880;2023-03-04T18:15:17;30.00;;;16.17;;
78205;SDS011;67480;48.920;12.880;2023-03-04T18:17:43;25.42;;;15.32;;
78205;SDS011;67480;48.920;12.880;2023-03-04T18:20:10;29.00;;;15.07;;
78205;SDS011;67480;48.920;12.880;2023-03-04T18:22:35;23.15;;;15.38;;
78205;SDS011;67480;48.920;12.880;2023-03-04T18:25:01;24.67;;;15.82;;
78205;SDS011;67480;48.920;12.880;2023-03-04T18:27:26;25.33;;;15.23;;
78205;SDS011;67480;48.920;12.880;2023-03-04T18:29:51;27.05;;;15.25;;
78205;SDS011;67480;48.920;12.880;2023-03-04T18:32:17;31.48;;;15.60;;
78205;SDS011;67480;48.920;12.880;2023-03-04T18:34:42;32.15;;;16.70;;
78205;SDS011;67480;48.920;12.880;2023-03-04T18:37:07;23.27;;;14.63;;
78205;SDS011;67480;48.920;12.880;2023-03-04T18:39:33;29.23;;;16.05;;
78205;SDS011;67480;48.920;12.880;2023-03-04T18:41:59;27.27;;;15.25;;
78205;SDS011;67480;48.920;12.880;2023-03-04T18:44:26;28.85;;;15.57;;
78205;SDS011;67480;48.920;12.880;2023-03-04T18:46:52;27.55;;;14.82;;
78205;SDS011;67480;48.920;12.880;2023-03-04T18:49:20;23.65;;;15.48;;
78205;SDS011;67480;48.920;12.880;2023-03-04T18:51:46;27.95;;;15.20;;
78205;SDS011;67480;48.920;12.880;2023-03-04T18:54:12;26.48;;;15.40;;
78205;SDS011;67480;48.920;12.880;2023-03-04T18:56:38;26.58;;;15.82;;
78205;SDS011;67480;48.920;12.880;2023-03-04T18:59:11;25.58;;;14.63;;
78205;SDS011;67480;48.920;12.880;2023-03-04T19:01:45;25.80;;;15.55;;
78205;SDS011;67480;48.920;12.880;2023-03-04T19:04:12;29.20;;;14.95;;
78205;SDS011;67480;48.920;12.880;2023-03-04T19:06:40;25.95;;;15.60;;
78205;SDS011;67480;48.920;12.880;2023-03-04T19:09:06;25.83;;;15.10;;
78205;SDS011;67480;48.920;12.880;2023-03-04T19:11:31;25.27;;;14.93;;
78205;SDS011;67480;48.920;12.880;2023-03-04T19:13:56;27.23;;;15.68;;
78205;SDS011;67480;48.920;12.880;2023-03-04T19:16:22;25.25;;;15.50;;
78205;SDS011;67480;48.920;12.880;2023-03-04T19:18:47;24.10;;;16.65;;
78205;SDS011;67480;48.920;12.880;2023-03-04T19:21:13;26.67;;;16.88;;
78205;SDS011;67480;48.920;12.880;2023-03-04T19:23:38;26.00;;;16.65;;
78205;SDS011;67480;48.920;12.880;2023-03-04T19:26:04;24.88;;;15.95;;
78205;SDS011;67480;48.920;12.880;2023-03-04T19:28:31;28.50;;;15.65;;
78205;SDS011;67480;48.920;12.880;2023-03-04T19:30:57;23.73;;;15.05;;
78205;SDS011;67480;48.920;12.880;2023-03-04T19:33:23;24.20;;;15.38;;
78205;SDS011;67480;48.920;12.880;2023-03-04T19:35:50;27.38;;;15.80;;
78205;SDS011;67480;48.920;12.880;2023-03-04T19:38:16;27.88;;;16.67;;
78205;SDS011;67480;48.920;12.880;2023-03-04T19:40:41;31.10;;;16.77;;
78205;SDS011;67480;48.920;12.880;2023-03-04T19:43:07;27.60;;;15.57;;
78205;SDS011;67480;48.920;12.880;2023-03-04T19:45:33;30.73;;;17.50;;
78205;SDS011;67480;48.920;12.880;2023-03-04T19:47:58;29.80;;;17.40;;
78205;SDS011;67480;48.920;12.880;2023-03-04T19:50:26;30.02;;;17.00;;
78205;SDS011;67480;48.920;12.880;2023-03-04T19:52:51;24.60;;;15.88;;
78205;SDS011;67480;48.920;12.880;2023-03-04T19:55:17;25.40;;;15.52;;
78205;SDS011;67480;48.920;12.880;2023-03-04T19:57:42;28.27;;;16.60;;
78205;SDS011;67480;48.920;12.880;2023-03-04T20:00:08;32.00;;;16.90;;
78205;SDS011;67480;48.920;12.880;2023-03-04T20:02:35;25.98;;;15.93;;
78205;SDS011;67480;48.920;12.880;2023-03-04T20:05:00;26.92;;;16.58;;
78205;SDS011;67480;48.920;12.880;2023-03-04T20:07:26;26.70;;;17.20;;
78205;SDS011;67480;48.920;12.880;2023-03-04T20:09:53;26.90;;;17.38;;
78205;SDS011;67480;48.920;12.880;2023-03-04T20:12:19;26.38;;;16.40;;
78205;SDS011;67480;48.920;12.880;2023-03-04T20:14:44;28.15;;;17.77;;
78205;SDS011;67480;48.920;12.880;2023-03-04T20:17:10;28.55;;;17.08;;
78205;SDS011;67480;48.920;12.880;2023-03-04T20:19:35;30.17;;;17.23;;
78205;SDS011;67480;48.920;12.880;2023-03-04T20:22:00;31.55;;;16.95;;
78205;SDS011;67480;48.920;12.880;2023-03-04T20:24:26;29.25;;;17.42;;
78205;SDS011;67480;48.920;12.880;2023-03-04T20:26:52;30.13;;;17.00;;
78205;SDS011;67480;48.920;12.880;2023-03-04T20:29:17;29.55;;;17.05;;
78205;SDS011;67480;48.920;12.880;2023-03-04T20:31:43;27.48;;;15.95;;
78205;SDS011;67480;48.920;12.880;2023-03-04T20:34:10;29.95;;;17.33;;
78205;SDS011;67480;48.920;12.880;2023-03-04T20:36:36;24.40;;;16.55;;
78205;SDS011;67480;48.920;12.880;2023-03-04T20:39:05;31.13;;;17.58;;
78205;SDS011;67480;48.920;12.880;2023-03-04T20:41:31;29.67;;;17.27;;
78205;SDS011;67480;48.920;12.880;2023-03-04T20:43:57;27.33;;;16.55;;
78205;SDS011;67480;48.920;12.880;2023-03-04T20:46:35;27.77;;;17.23;;
78205;SDS011;67480;48.920;12.880;2023-03-04T20:49:04;26.55;;;16.10;;
78205;SDS011;67480;48.920;12.880;2023-03-04T20:51:32;29.60;;;16.92;;
78205;SDS011;67480;48.920;12.880;2023-03-04T20:53:57;26.55;;;16.40;;
78205;SDS011;67480;48.920;12.880;2023-03-04T20:56:23;33.90;;;18.13;;
78205;SDS011;67480;48.920;12.880;2023-03-04T20:58:50;28.10;;;17.13;;
78205;SDS011;67480;48.920;12.880;2023-03-04T21:01:17;31.05;;;18.38;;
78205;SDS011;67480;48.920;12.880;2023-03-04T21:03:42;29.50;;;16.77;;
78205;SDS011;67480;48.920;12.880;2023-03-04T21:06:08;28.00;;;17.00;;
78205;SDS011;67480;48.920;12.880;2023-03-04T21:08:36;29.63;;;17.02;;
78205;SDS011;67480;48.920;12.880;2023-03-04T21:11:02;32.42;;;17.95;;
78205;SDS011;67480;48.920;12.880;2023-03-04T21:13:28;30.23;;;16.95;;
78205;SDS011;67480;48.920;12.880;2023-03-04T21:15:56;30.92;;;18.17;;
78205;SDS011;67480;48.920;12.880;2023-03-04T21:18:23;29.20;;;18.05;;
78205;SDS011;67480;48.920;12.880;2023-03-04T21:20:49;32.53;;;17.00;;
78205;SDS011;67480;48.920;12.880;2023-03-04T21:23:16;28.30;;;16.15;;
78205;SDS011;67480;48.920;12.880;2023-03-04T21:25:42;29.73;;;17.05;;
78205;SDS011;67480;48.920;12.880;2023-03-04T21:28:08;24.58;;;15.25;;
78205;SDS011;67480;48.920;12.880;2023-03-04T21:30:33;29.35;;;17.02;;
78205;SDS011;67480;48.920;12.880;2023-03-04T21:32:59;30.35;;;17.42;;
78205;SDS011;67480;48.920;12.880;2023-03-04T21:35:25;26.67;;;15.70;;
78205;SDS011;67480;48.920;12.880;2023-03-04T21:37:50;25.52;;;16.25;;
78205;SDS011;67480;48.920;12.880;2023-03-04T21:40:16;25.88;;;15.93;;
78205;SDS011;67480;48.920;12.880;2023-03-04T21:42:42;25.42;;;16.52;;
78205;SDS011;67480;48.920;12.880;2023-03-04T21:45:08;31.05;;;16.75;;
78205;SDS011;67480;48.920;12.880;2023-03-04T21:47:34;26.17;;;16.15;;
78205;SDS011;67480;48.920;12.880;2023-03-04T21:50:00;31.50;;;16.35;;
78205;SDS011;67480;48.920;12.880;2023-03-04T21:52:26;27.25;;;17.00;;
78205;SDS011;67480;48.920;12.880;2023-03-04T21:54:51;35.33;;;17.77;;
78205;SDS011;67480;48.920;12.880;2023-03-04T21:57:17;27.40;;;15.93;;
78205;SDS011;67480;48.920;12.880;2023-03-04T21:59:43;22.35;;;15.38;;
78205;SDS011;67480;48.920;12.880;2023-03-04T22:02:16;27.65;;;17.20;;
78205;SDS011;67480;48.920;12.880;2023-03-04T22:07:08;28.95;;;14.85;;
78205;SDS011;67480;48.920;12.880;2023-03-04T22:09:34;23.63;;;15.57;;
78205;SDS011;67480;48.920;12.880;2023-03-04T22:12:00;30.25;;;16.67;;
78205;SDS011;67480;48.920;12.880;2023-03-04T22:14:26;26.17;;;15.05;;
78205;SDS011;67480;48.920;12.880;2023-03-04T22:16:53;26.65;;;16.17;;
78205;SDS011;67480;48.920;12.880;2023-03-04T22:19:19;25.27;;;15.48;;
78205;SDS011;67480;48.920;12.880;2023-03-04T22:21:44;29.92;;;16.45;;
78205;SDS011;67480;48.920;12.880;2023-03-04T22:24:09;28.83;;;17.02;;
78205;SDS011;67480;48.920;12.880;2023-03-04T22:26:35;26.90;;;16.85;;
78205;SDS011;67480;48.920;12.880;2023-03-04T22:29:02;28.77;;;17.15;;
78205;SDS011;67480;48.920;12.880;2023-03-04T22:31:30;28.00;;;16.35;;
78205;SDS011;67480;48.920;12.880;2023-03-04T22:34:02;27.55;;;16.13;;
78205;SDS011;67480;48.920;12.880;2023-03-04T22:36:29;30.10;;;17.25;;
78205;SDS011;67480;48.920;12.880;2023-03-04T22:38:55;28.60;;;16.38;;
78205;SDS011;67480;48.920;12.880;2023-03-04T22:41:21;28.35;;;17.77;;
78205;SDS011;67480;48.920;12.880;2023-03-04T22:43:47;29.42;;;17.20;;
78205;SDS011;67480;48.920;12.880;2023-03-04T22:46:16;36.67;;;19.98;;
78205;SDS011;67480;48.920;12.880;2023-03-04T22:48:49;28.52;;;16.73;;
78205;SDS011;67480;48.920;12.880;2023-03-04T22:51:15;32.50;;;17.77;;
78205;SDS011;67480;48.920;12.880;2023-03-04T22:53:41;29.90;;;16.58;;
78205;SDS011;67480;48.920;12.880;2023-03-04T22:56:08;31.65;;;16.83;;
78205;SDS011;67480;48.920;12.880;2023-03-04T22:58:34;28.90;;;16.25;;
78205;SDS011;67480;48.920;12.880;2023-03-04T23:00:59;27.80;;;17.02;;
78205;SDS011;67480;48.920;12.880;2023-03-04T23:03:26;26.40;;;16.15;;
78205;SDS011;67480;48.920;12.880;2023-03-04T23:08:26;28.92;;;17.00;;
78205;SDS011;67480;48.920;12.880;2023-03-04T23:10:51;26.75;;;16.27;;
78205;SDS011;67480;48.920;12.880;2023-03-04T23:13:17;26.98;;;15.57;;
78205;SDS011;67480;48.920;12.880;2023-03-04T23:15:42;30.15;;;16.15;;
78205;SDS011;67480;48.920;12.880;2023-03-04T23:18:07;29.70;;;18.23;;
78205;SDS011;67480;48.920;12.880;2023-03-04T23:20:32;25.35;;;16.13;;
78205;SDS011;67480;48.920;12.880;2023-03-04T23:22:58;29.67;;;17.23;;
78205;SDS011;67480;48.920;12.880;2023-03-04T23:25:23;24.25;;;16.27;;
78205;SDS011;67480;48.920;12.880;2023-03-04T23:27:49;31.83;;;16.73;;
78205;SDS011;67480;48.920;12.880;2023-03-04T23:30:15;26.92;;;15.63;;
78205;SDS011;67480;48.920;12.880;2023-03-04T23:32:41;27.27;;;17.70;;
78205;SDS011;67480;48.920;12.880;2023-03-04T23:35:07;27.88;;;16.55;;
78205;SDS011;67480;48.920;12.880;2023-03-04T23:37:33;28.58;;;16.77;;
78205;SDS011;67480;48.920;12.880;2023-03-04T23:39:58;26.35;;;15.57;;
78205;SDS011;67480;48.920;12.880;2023-03-04T23:42:23;26.17;;;16.38;;
78205;SDS011;67480;48.920;12.880;2023-03-04T23:44:49;29.13;;;16.48;;
78205;SDS011;67480;48.920;12.880;2023-03-04T23:47:14;28.92;;;16.30;;
78205;SDS011;67480;48.920;12.880;2023-03-04T23:49:39;28.63;;;16.80;;
78205;SDS011;67480;48.920;12.880;2023-03-04T23:52:04;27.88;;;16.70;;
78205;SDS011;67480;48.920;12.880;2023-03-04T23:54:30;26.05;;;16.13;;
78205;SDS011;67480;48.920;12.880;2023-03-04T23:56:56;32.40;;;15.70;;
78205;SDS011;67480;48.920;12.880;2023-03-04T23:59:22;27.60;;;15.90;;
